Metar Cercanos

 

LEPA - Palma De Mallorc, Spain
Distance from station: ONO 38km
Actualización: 29/05/2017 00:00
Despejado
Despejado
 Viento del ENE
Viento: ENE 7 km/h
Temperatura: 19°C
Rocío: 13°C
Humedad: 68%
Barómetro: 1018 hPa
Resumen: Despejado
Visibility: greater than 10 km
2017/05/28 22:00 LEPA 282200Z 07004KT CAVOK 19/13 Q1018 NOSIG
LEMH - Mahon/Menorca Is, Spain
Distance from station: ENE 105km
Actualización: 29/05/2017 00:00
Few Clouds
Few Clouds
 Viento del ENE
Viento: ENE 11 km/h
Temperatura: 19°C
Rocío: 18°C
Humedad: 94%
Barómetro: 1019 hPa
Clouds: Few Clouds
Visibility: 10 km
Cloud details: Few Clouds 457 m
2017/05/28 22:00 LEMH 282200Z 07006KT 9999 FEW015 19/18 Q1019
 
LEIB - Ibiza/Es Codola, Spain
Distance from station: OSO 165km
Actualización: 29/05/2017 00:00
Despejado
Despejado
 Viento del NE
Viento: NE 11 km/h
Temperatura: 20°C
Rocío: 14°C
Humedad: 69%
Barómetro: 1017 hPa
Resumen: Despejado
Visibility: greater than 10 km
2017/05/28 22:00 LEIB 282200Z 05006KT CAVOK 20/14 Q1017 NOSIG
LEBL - Barcelona Airpor, Spain
Distance from station: NNO 225km
Actualización: 29/05/2017 00:00
Despejado
Despejado
 Viento del E
Viento: E 6 km/h
Temperatura: 21°C
Rocío: 16°C
Humedad: 73%
Barómetro: 1019 hPa
Resumen: Despejado
Visibility: greater than 10 km
2017/05/28 22:00 LEBL 282200Z 09003KT 020V140 CAVOK 21/16 Q1019 NOSIG
 
LEVC - Valencia (civ/Mi, Spain
Distance from station: NO 188km
Actualización: 29/05/2017 00:00
Few Clouds
Few Clouds
 Viento del varies
Viento: varies 4 km/h
Temperatura: 21°C
Rocío: 14°C
Humedad: 64%
Barómetro: 1018 hPa
Clouds: Few Clouds
Visibility: 10 km
Cloud details: Few Clouds 1219 m
2017/05/28 22:00 LEVC 282200Z VRB02KT 9999 FEW040 21/14 Q1018 NOSIG
LEGE - Gerona/Costa Bra, Spain
Distance from station: N 276km
Actualización: 29/05/2017 00:00
Despejado
Despejado
 Viento del O
Viento: O 4 km/h
Temperatura: 16°C
Rocío: 10°C
Humedad: 68%
Barómetro: 1019 hPa
Resumen: Despejado
Visibility: greater than 10 km
2017/05/28 22:00 LEGE 282200Z 26002KT CAVOK 16/10 Q1019
 
LEAL - Alicante/El Alte, Spain
Distance from station: OSO 344km
Actualización: 29/05/2017 00:00
Despejado
Despejado
 Viento del NE
Viento: NE 9 km/h
Temperatura: 22°C
Rocío: 12°C
Humedad: 53%
Barómetro: 1018 hPa
Resumen: Despejado
Visibility: greater than 10 km
2017/05/28 22:00 LEAL 282200Z 05005KT CAVOK 22/12 Q1018 NOSIG
LEAM - Almeria Airport, Spain
Distance from station: SSO 56km
Actualización: 29/05/2017 00:00
Despejado
Despejado
 Viento del calm
Viento: Calma
Temperatura: 21°C
Rocío: 17°C
Humedad: 78%
Barómetro: 1017 hPa
Clouds: Despejado
Visibility: 10 km
2017/05/28 22:00 LEAM 282200Z AUTO 00000KT 9999 NCD 21/17 Q1017
 
LEZG - Zaragoza (mil/Ci, Spain
Distance from station: NO 431km
Actualización: 29/05/2017 00:00
Few Clouds
Few Clouds
 Viento del E
Viento: E 26 km/h
Temperatura: 23°C
Rocío: 11°C
Humedad: 47%
Barómetro: 1016 hPa
Clouds: Few Clouds
Visibility: 10 km
Cloud details: Few Clouds 1524 m
2017/05/28 22:00 LEZG 282200Z 10014KT 9999 FEW050 23/11 Q1016
LEMD - Madrid/Barajas, Spain
Distance from station: ONO 234km
Actualización: 29/05/2017 00:00
Muy nuboso
Muy nuboso
 Viento del SSE
Viento: SSE 9 km/h
Temperatura: 23°C
Rocío: 11°C
Humedad: 47%
Barómetro: 1017 hPa
Clouds: Muy nuboso
Visibility: 10 km
Cloud details: Muy nuboso 2073 m
2017/05/28 22:00 LEMD 282200Z 16005KT 130V220 9999 BKN068 23/11 Q1017 NOSIG
 
LEGR - Granada Airport, Spain
Distance from station: OSO 62km
Actualización: 29/05/2017 00:00
Muy nuboso
Muy nuboso
 Viento del O
Viento: O 13 km/h
Temperatura: 22°C
Rocío: 14°C
Humedad: 61%
Barómetro: 1018 hPa
Clouds: Muy nuboso
Visibility: 10 km
Cloud details: Muy nuboso 1524 m
2017/05/28 22:00 LEGR 282200Z AUTO 26007KT 9999 BKN050 22/14 Q1018
LEMG - Malaga (civ/Mil), Spain
Distance from station: OSO 227km
Actualización: 29/05/2017 00:00
Despejado
Despejado
 Viento del ESE
Viento: ESE 13 km/h
Temperatura: 21°C
Rocío: 17°C
Humedad: 78%
Barómetro: 1017 hPa
Resumen: Despejado
Visibility: greater than 10 km
2017/05/28 22:00 LEMG 282200Z 12007KT CAVOK 21/17 Q1017 NOSIG
 
LEZL - Sevilla (civ/Mil, Spain
Distance from station: S 318km
Actualización: 29/05/2017 00:00
Despejado
Despejado
 Viento del OSO
Viento: OSO 15 km/h
Temperatura: 20°C
Rocío: 15°C
Humedad: 73%
Barómetro: 1018 hPa
Resumen: Despejado
Visibility: greater than 10 km
2017/05/28 22:00 LEZL 282200Z 24008KT 200V270 CAVOK 20/15 Q1018 NOSIG
LEVT - Vitoria, Spain
Distance from station: NO 226km
Actualización: 29/05/2017 00:00
Parcialmente nuboso
Parcialmente nuboso
 Viento del N
Viento: N 6 km/h
Temperatura: 22°C
Rocío: 13°C
Humedad: 57%
Barómetro: 1015 hPa
Clouds: Parcialmente nuboso
Visibility: 10 km
Cloud details: Parcialmente nuboso 2134 m
2017/05/28 22:00 LEVT 282200Z 35003KT 300V010 9999 SCT070 22/13 Q1015
 
LEBB - Bilbao/Sondica, Spain
Distance from station: NNO 235km
Actualización: 29/05/2017 00:00
Parcialmente nuboso
Parcialmente nuboso
 Viento del varies
Viento: varies 2 km/h
Temperatura: 17°C
Rocío: 17°C
Humedad: 100%
Barómetro: 1016 hPa
Clouds: Parcialmente nuboso
Visibility: 8 km
Cloud details: Muy nuboso 213 m
Parcialmente nuboso 762 m
2017/05/28 22:00 LEBB 282200Z VRB01KT 8000 BKN007 SCT025TCU 17/17 Q1016 TEMPO 1500 SHRA TS BKN008 SCT025CB
LESO - San Sebastian/Fu, Spain
Distance from station: N 231km
Actualización: 29/05/2017 00:00
Cubierto
Cubierto
 Viento del SO
Viento: SO 11 km/h
Temperatura: 18°C
Rocío: 17°C
Humedad: 94%
Barómetro: 1015 hPa
Clouds: Cubierto
Visibility: 8 km
Cloud details: Cubierto 30 m
2017/05/28 22:00 LESO 282200Z AUTO 23006KT 190V350 8000 VV001 18/17 Q1015
 
LEVD - Valladolid(Mil/C, Spain
Distance from station: ONO 239km
Actualización: 28/05/2017 21:30
NOT Current
Despejado
Despejado
 Viento del SSO
Viento: SSO 7 km/h
Temperatura: 19°C
Rocío: 13°C
Humedad: 68%
Barómetro: 1016 hPa
Resumen: Despejado
Visibility: greater than 10 km
2017/05/28 19:30 LEVD 281930Z 20004KT 170V230 CAVOK 19/13 Q1016
LESA - Salamanca (civ/M, Spain
Distance from station: ONO 349km
Actualización: 28/05/2017 20:00
NOT Current
Few Clouds
Few Clouds
 Viento del OSO
Viento: OSO 19 km/h
Temperatura: 20°C
Rocío: 12°C
Humedad: 60%
Barómetro: 1016 hPa
Clouds: Few Clouds
Visibility: 10 km
Cloud details: Few Clouds 853 m
2017/05/28 18:00 LESA 281800Z 25010KT 9999 FEW028 20/12 Q1016
 
LEXJ - Santander/Paraya, Spain
Distance from station: NNO 247km
Actualización: 29/05/2017 00:00
Mist, Parcialmente nuboso
Mist, Parcialmente nuboso
 Viento del O
Viento: O 7 km/h
Temperatura: 17°C
Rocío: 15°C
Humedad: 88%
Barómetro: 1016 hPa
Resumen: Mist
Clouds: Parcialmente nuboso
Visibility: 5 km
Cloud details: Parcialmente nuboso 366 m
2017/05/28 22:00 LEXJ 282200Z AUTO 26004KT 230V290 5000 BR SCT012/// 17/15 Q1016
LEAS - Asturias/Aviles, Spain
Distance from station: NO 214km
Actualización: 29/05/2017 00:00
Muy nuboso
Muy nuboso
 Viento del calm
Viento: Calma
Temperatura: 15°C
Rocío: 15°C
Humedad: 100%
Barómetro: 1016 hPa
Clouds: Muy nuboso
Visibility: 7 km
Cloud details: Parcialmente nuboso 183 m
Muy nuboso 549 m
2017/05/28 22:00 LEAS 282200Z 00000KT 7000 SCT006 BKN018 15/15 Q1016 TEMPO 1500 BCFG BKN002
 
LECO - La Coruna/Alvedr, Spain
Distance from station: ONO 222km
Actualización: 29/05/2017 00:00
Parcialmente nuboso
Parcialmente nuboso
 Viento del varies
Viento: varies 4 km/h
Temperatura: 16°C
Rocío: 15°C
Humedad: 94%
Barómetro: 1016 hPa
Clouds: Parcialmente nuboso
Visibility: 10 km
Cloud details: Parcialmente nuboso 975 m
Parcialmente nuboso 1219 m
2017/05/28 22:00 LECO 282200Z VRB02KT 9999 SCT032 SCT040 16/15 Q1016 TEMPO SHRA SCT030TCU
LEVX - Vigo/Peinador, Spain
Distance from station: O 214km
Actualización: 29/05/2017 00:00
Lluvia débil, Niebla, Cubierto
Lluvia débil, Niebla, Cubierto
 Viento del varies
Viento: varies 4 km/h
Temperatura: 15°C
Rocío: 15°C
Humedad: 100%
Barómetro: 1016 hPa
Resumen: Lluvia débil, Niebla
Clouds: Cubierto
Visibility: 1 km
Cloud details: Parcialmente nuboso 91 m
Cubierto 152 m
2017/05/28 22:00 LEVX 282200Z VRB02KT 0500 R19/1700D R01/0400D -RA FG SCT003 OVC005 15/15 Q1016 TEMPO 0250 BCFG VV001